Time;durP1;ratioP1;P1;durP2;ratioP2;P2;SDS_P1;SDS_P2;PMS_P1;PMS_P2;Temp;Humidity;BMP_temperature;BMP_pressure;BME280_temperature;BME280_humidity;BME280_pressure;Samples;Min_cycle;Max_cycle;Signal;HPM_P1;HPM_P2
2023/11/24 00:00:37;;;;;;;15.40;2.50;;;10.10;99.90;;;;;;5043869;28;20065;-77
2023/11/24 00:03:02;;;;;;;17.92;3.67;;;10.10;99.90;;;;;;5044973;28;20029;-76
2023/11/24 00:05:28;;;;;;;20.58;2.92;;;10.20;99.90;;;;;;5048219;28;20080;-77
2023/11/24 00:07:54;;;;;;;25.13;3.20;;;10.20;99.90;;;;;;5048234;28;20072;-77
2023/11/24 00:10:19;;;;;;;22.55;3.20;;;10.20;99.90;;;;;;5030820;28;20026;-77
2023/11/24 00:12:46;;;;;;;18.63;2.83;;;10.20;99.90;;;;;;5047258;28;20049;-78
2023/11/24 00:15:11;;;;;;;18.10;3.58;;;10.20;99.90;;;;;;5047380;28;20036;-77
2023/11/24 00:17:39;;;;;;;15.20;3.25;;;10.20;99.90;;;;;;5047978;28;20053;-77
2023/11/24 00:20:08;;;;;;;20.27;3.75;;;10.30;99.90;;;;;;5030947;28;20097;-77
2023/11/24 00:22:34;;;;;;;16.60;2.60;;;10.30;99.90;;;;;;5030875;28;20025;-77
2023/11/24 00:24:59;;;;;;;20.40;3.10;;;10.30;99.90;;;;;;5030680;28;20025;-77
2023/11/24 00:27:25;;;;;;;17.27;3.50;;;10.30;99.90;;;;;;5046911;28;20127;-77
2023/11/24 00:29:51;;;;;;;20.20;3.80;;;10.30;99.90;;;;;;5047894;28;20030;-77
2023/11/24 00:32:19;;;;;;;13.93;2.53;;;10.40;99.90;;;;;;5030524;28;20037;-77
2023/11/24 00:34:45;;;;;;;24.05;3.58;;;10.40;99.90;;;;;;5047962;28;20160;-77
2023/11/24 00:37:12;;;;;;;17.15;2.70;;;10.40;99.90;;;;;;5030578;28;20048;-77
2023/11/24 00:39:37;;;;;;;26.10;4.03;;;10.40;99.90;;;;;;5046759;28;20045;-77
2023/11/24 00:42:03;;;;;;;18.85;3.95;;;10.40;99.90;;;;;;5047604;28;20237;-77
2023/11/24 00:44:29;;;;;;;18.52;3.15;;;10.40;99.90;;;;;;5046798;28;20030;-77
2023/11/24 00:46:55;;;;;;;20.85;3.90;;;10.40;99.90;;;;;;5046854;28;20310;-77
2023/11/24 00:49:20;;;;;;;19.60;3.22;;;10.40;99.90;;;;;;5029926;28;20045;-77
2023/11/24 00:51:47;;;;;;;21.88;3.25;;;10.40;99.90;;;;;;5046573;28;20179;-77
2023/11/24 00:54:12;;;;;;;23.90;3.65;;;10.40;99.90;;;;;;5030154;28;20405;-77
2023/11/24 00:56:38;;;;;;;17.85;3.22;;;10.40;99.90;;;;;;5047605;28;20025;-77
2023/11/24 00:59:05;;;;;;;16.70;3.25;;;10.40;99.90;;;;;;5046411;28;20079;-76
2023/11/24 01:01:31;;;;;;;21.83;3.47;;;10.40;99.90;;;;;;5046248;28;20291;-77
2023/11/24 01:03:58;;;;;;;21.05;3.10;;;10.40;99.90;;;;;;5046158;28;20029;-77
2023/11/24 01:06:24;;;;;;;15.40;2.72;;;10.30;99.90;;;;;;5047333;28;20037;-77
2023/11/24 01:08:50;;;;;;;26.52;3.35;;;10.30;99.90;;;;;;5030121;28;20030;-77
2023/11/24 01:11:16;;;;;;;15.35;3.55;;;10.20;99.90;;;;;;5047391;28;20028;-77
2023/11/24 01:13:41;;;;;;;21.33;3.85;;;10.10;99.90;;;;;;5046189;28;20044;-77
2023/11/24 01:16:08;;;;;;;16.73;3.28;;;10.10;99.90;;;;;;5044812;28;20298;-77
2023/11/24 01:18:37;;;;;;;14.55;3.03;;;10.10;99.90;;;;;;5047073;28;20017;-77
2023/11/24 01:21:04;;;;;;;14.27;2.80;;;10.10;99.90;;;;;;5046127;28;20034;-76
2023/11/24 01:23:30;;;;;;;19.70;3.03;;;10.10;99.90;;;;;;5029516;28;20033;-77
2023/11/24 01:25:55;;;;;;;22.15;3.13;;;10.10;99.90;;;;;;5045931;28;20226;-77
2023/11/24 01:28:25;;;;;;;15.88;3.20;;;10.20;99.90;;;;;;5046527;28;20343;-77
2023/11/24 01:30:50;;;;;;;17.83;3.15;;;10.20;99.90;;;;;;5046038;28;20035;-77
2023/11/24 01:33:16;;;;;;;17.52;3.00;;;10.30;99.90;;;;;;5046958;28;20029;-77
2023/11/24 01:35:42;;;;;;;23.90;3.40;;;10.30;99.90;;;;;;5045656;28;20191;-77
2023/11/24 01:38:07;;;;;;;20.02;3.50;;;10.30;99.90;;;;;;5046651;28;20039;-77
2023/11/24 01:40:34;;;;;;;25.90;3.83;;;10.30;99.90;;;;;;5046744;28;20072;-77
2023/11/24 01:43:00;;;;;;;21.05;3.55;;;10.30;99.90;;;;;;5046104;28;20053;-77
2023/11/24 01:45:26;;;;;;;22.77;3.85;;;10.40;99.90;;;;;;5045521;28;20021;-77
2023/11/24 01:47:52;;;;;;;22.67;3.80;;;10.40;99.90;;;;;;5046432;28;20031;-77
2023/11/24 01:50:18;;;;;;;20.45;3.15;;;10.30;99.90;;;;;;5045431;28;20056;-77
2023/11/24 01:52:44;;;;;;;18.10;3.67;;;10.40;99.90;;;;;;5029016;28;20294;-77
2023/11/24 01:55:13;;;;;;;20.77;3.72;;;10.30;99.90;;;;;;5045516;28;20040;-76
2023/11/24 01:57:39;;;;;;;17.38;2.90;;;10.40;99.90;;;;;;5046035;28;20037;-77
2023/11/24 02:00:09;;;;;;;17.50;2.97;;;10.30;99.90;;;;;;5028910;28;20057;-77
2023/11/24 02:02:35;;;;;;;21.80;3.38;;;10.30;99.90;;;;;;5045286;28;20047;-76
2023/11/24 02:05:01;;;;;;;16.48;3.47;;;10.20;99.90;;;;;;5045293;28;20101;-76
2023/11/24 02:07:27;;;;;;;14.60;3.05;;;10.20;99.90;;;;;;5045240;28;20025;-76
2023/11/24 02:09:53;;;;;;;15.15;3.03;;;10.20;99.90;;;;;;5045189;28;20029;-77
2023/11/24 02:12:19;;;;;;;14.65;2.75;;;10.20;99.90;;;;;;5045302;28;20408;-76
2023/11/24 02:14:44;;;;;;;18.05;3.08;;;10.10;99.90;;;;;;5046295;28;20102;-76
2023/11/24 02:17:10;;;;;;;15.18;3.13;;;10.10;99.90;;;;;;5045694;28;20024;-76
2023/11/24 02:19:36;;;;;;;14.02;3.47;;;10.10;99.90;;;;;;5045839;28;20221;-76
2023/11/24 02:22:01;;;;;;;17.33;2.75;;;10.10;99.90;;;;;;5044950;28;20092;-76
2023/11/24 02:24:27;;;;;;;15.93;2.67;;;10.10;99.90;;;;;;5046185;28;20340;-75
2023/11/24 02:26:53;;;;;;;18.92;2.97;;;10.10;99.90;;;;;;5045631;28;20112;-76
2023/11/24 02:29:18;;;;;;;21.10;3.67;;;10.00;99.90;;;;;;5028560;28;20033;-76
2023/11/24 02:31:44;;;;;;;20.65;3.00;;;10.00;99.90;;;;;;5045649;28;20028;-76
2023/11/24 02:34:09;;;;;;;22.67;3.92;;;10.10;99.90;;;;;;5044828;28;20084;-76
2023/11/24 02:36:37;;;;;;;16.75;3.08;;;10.10;99.90;;;;;;5044785;28;20232;-75
2023/11/24 02:39:03;;;;;;;14.82;3.45;;;10.10;99.90;;;;;;5044724;28;20017;-76
2023/11/24 02:41:30;;;;;;;17.33;2.63;;;10.10;99.90;;;;;;5045386;28;20032;-76
2023/11/24 02:43:55;;;;;;;17.77;3.35;;;10.00;99.90;;;;;;5028247;28;20060;-76
2023/11/24 02:46:21;;;;;;;23.08;3.63;;;10.00;99.90;;;;;;5045552;28;20025;-76
2023/11/24 02:48:47;;;;;;;16.88;2.85;;;10.00;99.90;;;;;;5044399;28;20033;-76
2023/11/24 02:51:13;;;;;;;12.95;2.83;;;10.00;99.90;;;;;;5045562;28;20041;-75
2023/11/24 02:53:39;;;;;;;14.60;2.55;;;10.00;99.90;;;;;;5028263;28;20182;-76
2023/11/24 02:56:05;;;;;;;20.20;3.13;;;10.00;99.90;;;;;;5044517;28;20053;-75
2023/11/24 02:58:32;;;;;;;25.15;4.15;;;10.00;99.90;;;;;;5045592;28;20111;-76
2023/11/24 03:00:57;;;;;;;14.18;3.20;;;10.00;99.90;;;;;;5044490;28;20287;-76
2023/11/24 03:03:23;;;;;;;15.98;2.88;;;10.00;99.90;;;;;;5011387;28;20033;-76
2023/11/24 03:05:52;;;;;;;22.23;3.10;;;10.00;99.90;;;;;;5028049;28;20034;-76
2023/11/24 03:08:19;;;;;;;15.25;2.40;;;10.00;99.90;;;;;;5044982;28;20022;-76
2023/11/24 03:10:45;;;;;;;15.65;2.55;;;10.00;99.90;;;;;;5028176;28;20083;-76
2023/11/24 03:13:11;;;;;;;12.98;2.70;;;10.00;99.90;;;;;;5044517;28;20306;-76
2023/11/24 03:15:37;;;;;;;12.57;2.67;;;10.10;99.90;;;;;;5027849;28;20022;-77
2023/11/24 03:18:02;;;;;;;15.85;2.55;;;10.20;99.90;;;;;;5027847;28;20056;-76
2023/11/24 03:20:28;;;;;;;16.83;3.08;;;10.20;99.90;;;;;;5045248;28;20083;-76
2023/11/24 03:22:54;;;;;;;13.40;2.85;;;10.20;99.90;;;;;;5045242;28;20040;-76
2023/11/24 03:25:20;;;;;;;11.20;2.05;;;10.20;99.90;;;;;;5044361;28;20030;-76
2023/11/24 03:27:46;;;;;;;17.75;2.78;;;10.30;99.90;;;;;;5045018;28;20082;-76
2023/11/24 03:30:12;;;;;;;20.05;3.05;;;10.20;99.90;;;;;;5027690;28;20018;-77
2023/11/24 03:32:37;;;;;;;12.23;2.88;;;10.20;99.90;;;;;;5044196;28;20037;-77
2023/11/24 03:35:05;;;;;;;23.35;3.67;;;10.20;99.90;;;;;;5027820;28;20036;-76
2023/11/24 03:37:31;;;;;;;14.48;2.47;;;10.20;99.90;;;;;;5043969;28;20029;-76
2023/11/24 03:39:56;;;;;;;17.70;2.80;;;10.20;99.90;;;;;;5048275;28;20336;-76
2023/11/24 03:42:22;;;;;;;17.05;3.78;;;10.20;99.90;;;;;;5048877;28;20056;-76
2023/11/24 03:44:48;;;;;;;16.27;3.00;;;10.20;99.90;;;;;;5047801;28;20084;-76
2023/11/24 03:47:13;;;;;;;18.05;2.72;;;10.20;99.90;;;;;;5048996;28;20080;-77
2023/11/24 03:49:39;;;;;;;11.82;2.33;;;10.20;99.90;;;;;;5048553;28;20053;-76
2023/11/24 03:52:05;;;;;;;16.88;3.35;;;10.20;99.90;;;;;;5048708;28;20282;-76
2023/11/24 03:54:31;;;;;;;14.73;2.33;;;10.10;99.90;;;;;;5031309;28;20314;-76
2023/11/24 03:56:56;;;;;;;21.35;2.83;;;10.10;99.90;;;;;;5047786;28;20287;-76
2023/11/24 03:59:22;;;;;;;17.77;3.00;;;10.10;99.90;;;;;;5047351;28;20068;-77
2023/11/24 04:01:48;;;;;;;13.80;2.40;;;10.10;99.90;;;;;;5031173;28;20067;-76
2023/11/24 04:04:13;;;;;;;20.48;2.97;;;10.10;99.90;;;;;;5048536;28;20057;-76
2023/11/24 04:06:39;;;;;;;15.73;2.45;;;10.10;99.90;;;;;;5047531;28;20036;-76
2023/11/24 04:09:05;;;;;;;10.48;2.22;;;10.10;99.90;;;;;;5048567;28;20033;-76
2023/11/24 04:11:30;;;;;;;10.20;2.13;;;10.10;99.90;;;;;;5047311;28;20030;-76
2023/11/24 04:13:56;;;;;;;13.30;2.10;;;10.10;99.90;;;;;;5030869;28;20230;-76
2023/11/24 04:16:23;;;;;;;12.82;2.08;;;10.10;99.90;;;;;;5048286;28;20283;-76
2023/11/24 04:18:48;;;;;;;16.20;2.42;;;10.10;99.90;;;;;;5047191;28;20033;-76
2023/11/24 04:21:14;;;;;;;13.95;2.50;;;10.10;99.90;;;;;;5047285;28;20172;-76
2023/11/24 04:23:40;;;;;;;12.27;1.90;;;10.10;99.90;;;;;;5046958;28;20029;-76
2023/11/24 04:26:09;;;;;;;13.70;2.40;;;10.10;99.90;;;;;;5030728;28;20037;-76
2023/11/24 04:28:35;;;;;;;9.40;2.13;;;10.10;99.90;;;;;;5048151;28;20197;-76
2023/11/24 04:31:00;;;;;;;8.63;2.15;;;10.10;99.90;;;;;;5047106;28;20021;-76
2023/11/24 04:33:26;;;;;;;8.80;1.92;;;10.10;99.90;;;;;;5030508;28;20025;-76
2023/11/24 04:35:55;;;;;;;15.73;2.42;;;10.10;99.90;;;;;;5030388;28;20234;-76
2023/11/24 04:38:21;;;;;;;10.88;1.95;;;10.10;99.90;;;;;;5030858;28;20040;-76
2023/11/24 04:40:46;;;;;;;12.18;2.92;;;10.10;99.90;;;;;;5047083;28;20300;-76
2023/11/24 04:43:12;;;;;;;13.75;2.53;;;10.10;99.90;;;;;;5046880;28;20071;-76
2023/11/24 04:45:39;;;;;;;16.70;2.53;;;10.10;99.90;;;;;;5013910;28;20033;-76
2023/11/24 04:48:07;;;;;;;16.30;3.42;;;10.10;99.90;;;;;;5046847;28;20021;-75
2023/11/24 04:50:34;;;;;;;9.82;2.22;;;10.10;99.90;;;;;;5046950;28;20049;-75
2023/11/24 04:53:00;;;;;;;17.63;2.67;;;10.10;99.90;;;;;;5047808;28;20049;-76
2023/11/24 04:55:26;;;;;;;12.10;3.05;;;10.10;99.90;;;;;;5046553;28;20179;-76
2023/11/24 04:57:52;;;;;;;17.90;3.85;;;10.10;99.90;;;;;;5047415;28;20076;-76
2023/11/24 05:00:18;;;;;;;12.80;2.20;;;10.10;99.90;;;;;;5030096;28;20041;-76
2023/11/24 05:02:44;;;;;;;12.38;3.00;;;10.10;99.90;;;;;;5046515;28;20035;-76
2023/11/24 05:05:09;;;;;;;13.23;1.98;;;10.10;99.90;;;;;;5030003;28;20029;-76
2023/11/24 05:07:35;;;;;;;13.68;2.40;;;10.10;99.90;;;;;;5029843;28;20030;-76
2023/11/24 05:10:03;;;;;;;14.02;2.38;;;10.00;99.90;;;;;;5029902;28;20179;-76
2023/11/24 05:12:29;;;;;;;17.55;2.50;;;10.00;99.90;;;;;;5047534;28;20026;-76
2023/11/24 05:14:55;;;;;;;15.10;2.83;;;10.10;99.90;;;;;;5046329;28;20029;-76
2023/11/24 05:17:20;;;;;;;12.25;2.20;;;10.10;99.90;;;;;;5045964;28;20064;-76
2023/11/24 05:19:46;;;;;;;12.63;2.35;;;10.00;99.90;;;;;;5013211;28;20033;-76
2023/11/24 05:22:11;;;;;;;11.95;2.15;;;10.00;99.90;;;;;;5045986;28;20311;-76
2023/11/24 05:24:39;;;;;;;12.18;1.95;;;10.10;99.90;;;;;;5029629;28;20054;-76
2023/11/24 05:27:05;;;;;;;8.10;3.00;;;10.10;99.90;;;;;;5046480;28;20183;-76
2023/11/24 05:29:31;;;;;;;17.73;2.63;;;10.00;99.90;;;;;;5029529;28;20305;-77
2023/11/24 05:31:57;;;;;;;15.48;2.83;;;10.10;99.90;;;;;;5046871;28;20048;-76
2023/11/24 05:34:24;;;;;;;14.48;3.05;;;10.10;99.90;;;;;;5046819;28;20040;-76
2023/11/24 05:36:50;;;;;;;15.05;2.15;;;10.00;99.90;;;;;;5046908;28;20293;-76
2023/11/24 05:39:16;;;;;;;12.27;2.22;;;10.10;99.90;;;;;;5047042;28;20071;-76
2023/11/24 05:41:44;;;;;;;11.50;2.80;;;10.10;99.90;;;;;;5045511;28;20096;-76
2023/11/24 05:44:10;;;;;;;11.30;1.92;;;10.10;99.90;;;;;;5045576;28;20025;-76
2023/11/24 05:46:37;;;;;;;13.15;1.80;;;10.10;99.90;;;;;;5045338;28;20026;-76
2023/11/24 05:49:03;;;;;;;10.23;1.83;;;10.10;99.90;;;;;;5045999;28;20038;-76
2023/11/24 05:51:29;;;;;;;13.88;1.90;;;10.10;99.90;;;;;;5045341;28;20051;-76
2023/11/24 05:53:55;;;;;;;15.73;2.03;;;10.10;99.90;;;;;;5029123;28;20025;-76
2023/11/24 05:56:21;;;;;;;15.70;1.88;;;10.10;99.90;;;;;;5029056;28;20065;-76
2023/11/24 05:58:47;;;;;;;10.35;2.50;;;10.10;99.90;;;;;;5028978;28;20136;-76
2023/11/24 06:01:12;;;;;;;13.15;2.05;;;10.10;99.90;;;;;;5028278;28;20183;-76
2023/11/24 06:03:38;;;;;;;15.30;2.35;;;10.10;99.90;;;;;;5045260;28;20038;-76
2023/11/24 06:06:04;;;;;;;11.93;2.00;;;10.10;99.90;;;;;;5046183;28;20036;-76
2023/11/24 06:08:30;;;;;;;10.90;2.05;;;10.10;99.90;;;;;;5012280;28;20136;-76
2023/11/24 06:10:55;;;;;;;9.43;1.98;;;10.10;99.90;;;;;;5046234;28;20092;-76
2023/11/24 06:13:22;;;;;;;9.25;1.90;;;10.10;99.90;;;;;;5045212;28;20040;-76
2023/11/24 06:15:48;;;;;;;13.20;2.13;;;10.10;99.90;;;;;;5045231;28;20079;-76
2023/11/24 06:18:14;;;;;;;13.60;2.45;;;10.10;99.90;;;;;;5028787;28;20043;-76
2023/11/24 06:20:40;;;;;;;18.95;2.15;;;10.10;99.90;;;;;;5045749;28;20199;-76
2023/11/24 06:23:05;;;;;;;14.45;2.38;;;10.10;99.90;;;;;;5028268;28;20033;-75
2023/11/24 06:25:31;;;;;;;8.68;2.20;;;10.10;99.90;;;;;;5028418;28;20223;-75
2023/11/24 06:27:57;;;;;;;11.13;2.15;;;10.10;99.90;;;;;;5045774;28;20181;-75
2023/11/24 06:30:22;;;;;;;9.50;2.83;;;10.10;99.90;;;;;;5028361;28;20025;-75
2023/11/24 06:32:48;;;;;;;8.90;2.00;;;10.10;99.90;;;;;;5044897;28;20044;-75
2023/11/24 06:35:15;;;;;;;11.65;2.15;;;10.10;99.90;;;;;;5044889;28;20036;-75
2023/11/24 06:37:41;;;;;;;10.23;2.00;;;10.10;99.90;;;;;;5028249;28;20295;-75
2023/11/24 06:40:11;;;;;;;19.08;2.70;;;10.00;99.90;;;;;;5045327;28;20044;-75
2023/11/24 06:42:38;;;;;;;;;;;10.00;99.90;;;;;;5044920;28;20056;-77
2023/11/24 06:45:04;;;;;;;17.65;2.63;;;9.90;99.90;;;;;;5044696;28;19951;-77
2023/11/24 06:47:29;;;;;;;14.18;1.80;;;10.00;99.90;;;;;;5028387;28;20079;-77
2023/11/24 06:49:56;;;;;;;16.77;3.33;;;9.90;99.90;;;;;;5044429;28;20053;-77
2023/11/24 06:52:21;;;;;;;13.65;1.83;;;9.90;99.90;;;;;;5045565;28;20079;-77
2023/11/24 06:54:47;;;;;;;12.15;1.83;;;9.90;99.90;;;;;;5045550;28;20041;-77
2023/11/24 06:57:13;;;;;;;18.33;2.88;;;9.90;99.90;;;;;;5044141;28;20105;-77
2023/11/24 06:59:39;;;;;;;13.27;2.42;;;9.90;99.90;;;;;;5044428;28;20282;-78
2023/11/24 07:02:04;;;;;;;10.82;2.03;;;9.90;99.90;;;;;;5027852;28;20064;-77
2023/11/24 07:04:30;;;;;;;9.15;1.90;;;9.90;99.90;;;;;;5044395;28;20044;-77
2023/11/24 07:06:56;;;;;;;14.32;2.88;;;9.90;99.90;;;;;;5045413;28;20076;-78
2023/11/24 07:09:22;;;;;;;17.95;3.35;;;9.90;99.90;;;;;;5027734;28;20291;-77
2023/11/24 07:11:48;;;;;;;11.85;2.17;;;9.90;99.90;;;;;;5045158;28;20021;-77
2023/11/24 07:14:14;;;;;;;15.73;2.28;;;9.90;99.90;;;;;;5031846;28;20029;-77
2023/11/24 07:16:40;;;;;;;11.25;1.95;;;9.90;99.90;;;;;;5048327;28;20037;-77
2023/11/24 07:19:05;;;;;;;15.25;2.65;;;9.90;99.90;;;;;;5049426;28;20028;-77
2023/11/24 07:21:31;;;;;;;12.18;2.38;;;9.90;99.90;;;;;;5031919;28;20075;-77
2023/11/24 07:23:57;;;;;;;16.42;2.72;;;9.90;99.90;;;;;;5048158;28;20109;-77
2023/11/24 07:26:22;;;;;;;11.52;2.80;;;9.90;99.90;;;;;;5049259;28;20032;-77
2023/11/24 07:28:48;;;;;;;9.60;2.17;;;10.00;99.90;;;;;;5032028;28;20026;-75
2023/11/24 07:31:14;;;;;;;16.05;2.10;;;10.00;99.90;;;;;;5047828;28;20040;-75
2023/11/24 07:33:49;;;;;;;14.27;2.28;;;10.00;99.90;;;;;;5048032;28;20030;-77
2023/11/24 07:36:16;;;;;;;11.05;2.10;;;10.00;99.90;;;;;;5047999;28;20029;-77
2023/11/24 07:38:42;;;;;;;15.57;3.17;;;10.00;99.90;;;;;;5049015;28;20036;-77
2023/11/24 07:41:09;;;;;;;14.48;2.38;;;10.00;99.90;;;;;;5048020;28;20029;-77
2023/11/24 07:43:35;;;;;;;10.55;2.55;;;10.00;99.90;;;;;;5031354;28;20038;-77
2023/11/24 07:46:05;;;;;;;10.73;2.08;;;10.00;99.90;;;;;;5014910;28;20036;-77
2023/11/24 07:48:31;;;;;;;10.40;1.83;;;10.00;99.90;;;;;;5047706;28;20079;-77
2023/11/24 07:50:57;;;;;;;11.50;2.70;;;10.00;99.90;;;;;;5047848;28;20033;-77
2023/11/24 07:53:23;;;;;;;9.52;2.53;;;9.90;99.90;;;;;;5031104;28;20033;-77
2023/11/24 07:55:49;;;;;;;11.57;1.95;;;9.90;99.90;;;;;;5047658;28;20022;-78
2023/11/24 07:58:15;;;;;;;14.30;2.80;;;9.80;99.90;;;;;;5048565;28;20064;-77
2023/11/24 08:00:41;;;;;;;20.95;3.40;;;9.70;99.90;;;;;;5048250;28;20040;-78
2023/11/24 08:03:06;;;;;;;10.35;2.20;;;9.70;99.90;;;;;;5047365;28;20025;-77
2023/11/24 08:05:32;;;;;;;9.80;1.88;;;9.60;99.90;;;;;;5047806;28;20097;-75
2023/11/24 08:08:00;;;;;;;13.10;1.95;;;9.70;99.90;;;;;;5047162;28;20291;-75
2023/11/24 08:10:27;;;;;;;10.30;1.98;;;9.60;99.90;;;;;;5031266;28;20032;-77
2023/11/24 08:12:53;;;;;;;8.73;1.88;;;9.60;99.90;;;;;;5031116;28;20053;-77
2023/11/24 08:15:19;;;;;;;12.82;2.38;;;9.60;99.90;;;;;;5030798;28;20189;-76
2023/11/24 08:17:44;;;;;;;10.70;2.72;;;9.60;99.90;;;;;;5030777;28;20049;-77
2023/11/24 08:20:10;;;;;;;8.25;1.83;;;9.60;99.90;;;;;;5048179;28;20048;-76
2023/11/24 08:22:39;;;;;;;7.15;1.48;;;9.60;99.90;;;;;;5047254;28;20306;-76
2023/11/24 08:25:09;;;;;;;7.55;1.88;;;9.60;99.90;;;;;;5047070;28;20033;-76
2023/11/24 08:27:35;;;;;;;;;;;9.50;99.90;;;;;;5048151;28;20026;-76
2023/11/24 08:30:04;;;;;;;10.15;1.83;;;9.40;99.90;;;;;;5046918;28;19928;-76
2023/11/24 08:32:30;;;;;;;9.15;2.50;;;9.40;99.90;;;;;;5046925;28;20026;-76
2023/11/24 08:34:56;;;;;;;17.10;2.20;;;9.40;99.90;;;;;;5030457;28;20105;-76
2023/11/24 08:37:23;;;;;;;9.13;2.35;;;9.40;99.90;;;;;;5047321;28;20235;-76
2023/11/24 08:39:48;;;;;;;15.90;2.17;;;9.30;99.90;;;;;;5047706;28;20029;-77
2023/11/24 08:42:14;;;;;;;9.32;1.85;;;9.30;99.90;;;;;;5047552;28;20095;-77
2023/11/24 08:44:40;;;;;;;12.75;2.95;;;9.30;99.90;;;;;;5047700;28;20279;-77
2023/11/24 08:47:06;;;;;;;8.70;1.98;;;9.30;99.90;;;;;;5046409;28;20244;-77
2023/11/24 08:49:32;;;;;;;10.57;2.28;;;9.30;99.90;;;;;;5046354;28;20049;-76
2023/11/24 08:51:58;;;;;;;10.25;6.10;;;9.30;99.90;;;;;;5046159;28;20045;-76
2023/11/24 08:54:24;;;;;;;20.00;3.00;;;9.30;99.90;;;;;;5047028;28;20037;-77
2023/11/24 08:56:50;;;;;;;12.77;2.03;;;9.40;99.90;;;;;;5047412;28;20076;-77
2023/11/24 08:59:16;;;;;;;9.60;2.60;;;9.40;99.90;;;;;;5046476;28;20363;-76
2023/11/24 09:01:42;;;;;;;12.27;1.90;;;9.40;99.90;;;;;;5046219;28;20029;-77
2023/11/24 09:04:09;;;;;;;10.98;3.72;;;9.40;99.90;;;;;;5029676;28;20041;-78
2023/11/24 09:06:38;;;;;;;11.68;3.92;;;9.40;99.90;;;;;;5046074;28;20166;-77
2023/11/24 09:09:07;;;;;;;9.32;2.75;;;9.30;99.90;;;;;;5046092;28;20033;-77
2023/11/24 09:11:33;;;;;;;6.43;2.28;;;9.30;99.90;;;;;;5046030;28;20036;-77
2023/11/24 09:13:59;;;;;;;22.30;7.82;;;9.30;99.90;;;;;;5029473;28;20096;-77
2023/11/24 09:16:24;;;;;;;11.50;3.95;;;9.40;99.90;;;;;;5013284;28;20094;-77
2023/11/24 09:18:50;;;;;;;12.60;1.88;;;9.40;99.90;;;;;;5047150;28;20037;-77
2023/11/24 09:21:17;;;;;;;6.65;1.67;;;9.40;99.90;;;;;;5046173;28;20132;-77
2023/11/24 09:23:44;;;;;;;7.93;2.20;;;9.40;99.90;;;;;;5045685;28;20084;-76
2023/11/24 09:26:10;;;;;;;16.95;3.10;;;9.40;99.90;;;;;;5029393;28;20109;-77
2023/11/24 09:28:39;;;;;;;8.98;2.28;;;9.40;99.90;;;;;;5029346;28;20021;-77
2023/11/24 09:31:08;;;;;;;8.77;1.90;;;9.40;99.90;;;;;;5045260;28;20037;-76
2023/11/24 09:33:41;;;;;;;7.60;1.70;;;9.50;99.90;;;;;;5046404;28;20037;-76
2023/11/24 09:36:07;;;;;;;8.57;1.58;;;9.50;99.90;;;;;;5028108;28;20044;-76
2023/11/24 09:38:35;;;;;;;4.60;1.30;;;9.50;99.90;;;;;;5029370;28;20233;-76
2023/11/24 09:41:05;;;;;;;5.13;1.30;;;9.60;99.90;;;;;;5046562;28;20025;-76
2023/11/24 09:43:31;;;;;;;5.97;3.28;;;9.60;99.90;;;;;;5046379;28;20059;-75
2023/11/24 09:45:58;;;;;;;7.20;1.45;;;9.60;99.90;;;;;;5045333;28;20029;-75
2023/11/24 09:48:23;;;;;;;5.78;1.80;;;9.70;99.90;;;;;;5029100;28;20021;-75
2023/11/24 09:50:49;;;;;;;7.32;1.35;;;9.80;99.90;;;;;;5045497;28;20042;-76
2023/11/24 09:53:16;;;;;;;7.47;1.75;;;9.80;99.90;;;;;;5046077;28;20041;-76
2023/11/24 09:55:42;;;;;;;7.00;1.35;;;9.90;99.90;;;;;;5029203;28;20037;-76
2023/11/24 09:58:08;;;;;;;5.32;1.10;;;9.80;99.90;;;;;;5028785;28;20306;-75
2023/11/24 10:00:33;;;;;;;9.40;1.65;;;9.70;99.90;;;;;;5045264;28;20190;-75
2023/11/24 10:03:00;;;;;;;6.45;1.20;;;9.60;99.90;;;;;;5028649;28;20429;-75
2023/11/24 10:05:26;;;;;;;5.65;1.50;;;9.60;99.90;;;;;;5045871;28;20045;-76
2023/11/24 10:07:51;;;;;;;7.60;1.55;;;9.60;99.90;;;;;;5028579;28;20032;-75
2023/11/24 10:10:22;;;;;;;7.40;1.50;;;9.60;99.90;;;;;;5044917;28;20040;-76
2023/11/24 10:12:50;;;;;;;5.40;1.38;;;9.60;99.90;;;;;;5046054;28;20033;-75
2023/11/24 10:15:16;;;;;;;3.92;1.20;;;9.60;99.90;;;;;;5044715;28;20041;-76
2023/11/24 10:17:45;;;;;;;10.63;4.15;;;9.60;99.90;;;;;;5028329;28;20266;-76
2023/11/24 10:20:11;;;;;;;11.55;5.78;;;9.60;99.90;;;;;;5044881;28;20029;-78
2023/11/24 10:22:37;;;;;;;14.07;3.38;;;9.60;99.90;;;;;;5028248;28;20037;-76
2023/11/24 10:25:12;;;;;;;12.93;4.68;;;9.50;99.90;;;;;;5044609;28;20244;-75
2023/11/24 10:27:40;;;;;;;13.80;5.63;;;9.50;99.90;;;;;;5044386;28;20017;-75
2023/11/24 10:30:06;;;;;;;10.68;2.92;;;9.50;99.90;;;;;;5044249;28;20021;-76
2023/11/24 10:32:32;;;;;;;6.55;2.22;;;9.40;99.90;;;;;;5011787;28;20048;-76
2023/11/24 10:35:00;;;;;;;7.15;1.88;;;9.40;99.90;;;;;;5045412;28;20033;-75
2023/11/24 10:37:26;;;;;;;10.00;1.92;;;9.50;99.90;;;;;;5044371;28;20040;-75
2023/11/24 10:39:52;;;;;;;8.02;1.98;;;9.60;99.90;;;;;;5027860;28;20176;-74
2023/11/24 10:42:19;;;;;;;5.93;1.50;;;9.90;99.90;;;;;;5044803;28;20279;-75
2023/11/24 10:44:44;;;;;;;5.60;1.50;;;10.10;99.90;;;;;;5011697;28;20017;-74
2023/11/24 10:47:11;;;;;;;8.20;1.45;;;10.30;99.90;;;;;;5044230;28;20081;-75
2023/11/24 10:49:44;;;;;;;7.85;1.40;;;10.40;99.90;;;;;;5044858;28;20045;-74
2023/11/24 10:52:22;;;;;;;8.57;2.03;;;10.30;99.90;;;;;;5044268;28;20062;-75
2023/11/24 10:54:51;;;;;;;7.93;2.45;;;10.30;99.90;;;;;;5044181;28;20037;-75
2023/11/24 10:57:17;;;;;;;9.13;1.38;;;10.20;99.90;;;;;;5011079;28;20021;-75
2023/11/24 10:59:42;;;;;;;8.18;2.22;;;10.10;99.90;;;;;;5043883;28;20302;-75
2023/11/24 11:02:08;;;;;;;4.93;2.53;;;10.10;99.90;;;;;;5044010;28;20232;-74
2023/11/24 11:04:37;;;;;;;8.55;1.60;;;10.00;99.90;;;;;;5044083;28;20025;-74
2023/11/24 11:07:08;;;;;;;8.93;1.67;;;9.80;99.90;;;;;;5028167;28;20036;-74
2023/11/24 11:09:42;;;;;;;6.80;1.30;;;9.70;99.90;;;;;;5027261;28;20229;-75
2023/11/24 11:12:19;;;;;;;8.65;2.00;;;9.60;99.90;;;;;;5028512;28;20048;-75
2023/11/24 11:14:46;;;;;;;11.35;2.33;;;9.60;99.90;;;;;;5044422;28;20025;-75
2023/11/24 11:17:20;;;;;;;8.25;1.75;;;9.60;99.90;;;;;;5043646;28;20168;-75
2023/11/24 11:20:26;;;;;;;6.10;1.40;;;9.60;99.90;;;;;;5043805;28;20026;-76
2023/11/24 11:23:00;;;;;;;10.43;4.50;;;9.60;99.90;;;;;;5016225;28;20029;-76
2023/11/24 11:25:26;;;;;;;10.80;3.90;;;9.60;99.90;;;;;;5027563;28;20122;-76
2023/11/24 11:27:54;;;;;;;9.07;3.10;;;9.80;99.90;;;;;;5043748;28;20030;-76
2023/11/24 11:30:26;;;;;;;15.27;2.00;;;10.00;99.90;;;;;;5044622;28;20032;-76
2023/11/24 11:33:10;;;;;;;7.88;1.48;;;10.20;99.90;;;;;;5043789;28;20033;-76
2023/11/24 11:35:36;;;;;;;4.07;1.13;;;10.30;99.90;;;;;;5043752;28;20041;-76
2023/11/24 11:38:04;;;;;;;5.50;1.50;;;10.30;99.90;;;;;;5027315;28;20348;-76
2023/11/24 11:40:33;;;;;;;3.75;1.40;;;10.30;99.90;;;;;;5044947;28;20156;-76
2023/11/24 11:43:05;;;;;;;9.50;2.33;;;10.30;99.90;;;;;;5043854;28;20077;-76
2023/11/24 11:45:32;;;;;;;5.38;1.17;;;10.20;99.90;;;;;;5028058;28;20045;-76
2023/11/24 11:48:00;;;;;;;7.28;1.50;;;10.00;99.90;;;;;;5043674;28;20076;-75
2023/11/24 11:50:25;;;;;;;5.47;1.63;;;10.00;99.90;;;;;;5027288;28;20041;-76
2023/11/24 11:52:54;;;;;;;7.50;1.63;;;9.90;99.90;;;;;;5043769;28;20098;-75
2023/11/24 11:55:20;;;;;;;8.48;1.40;;;9.80;99.90;;;;;;5043744;28;20104;-75
2023/11/24 11:57:55;;;;;;;5.65;1.38;;;9.70;99.90;;;;;;5044393;28;20025;-75
2023/11/24 12:00:31;;;;;;;5.78;1.42;;;9.80;99.90;;;;;;5045951;28;20100;-76
2023/11/24 12:02:57;;;;;;;7.85;1.50;;;9.70;99.90;;;;;;5047104;28;20033;-76
2023/11/24 12:05:22;;;;;;;3.38;1.35;;;9.70;99.90;;;;;;5046908;28;20037;-75
2023/11/24 12:07:52;;;;;;;9.30;1.58;;;9.80;99.90;;;;;;5047901;28;20025;-76
2023/11/24 12:10:18;;;;;;;3.38;1.30;;;9.90;99.90;;;;;;5046861;28;20052;-76
2023/11/24 12:12:45;;;;;;;6.65;1.35;;;9.90;99.90;;;;;;5048048;28;20032;-75
2023/11/24 12:15:17;;;;;;;9.05;2.70;;;9.90;99.90;;;;;;5046689;28;20021;-76
2023/11/24 12:17:43;;;;;;;6.50;1.58;;;10.00;99.90;;;;;;5046766;28;20271;-75
2023/11/24 12:20:10;;;;;;;5.55;1.27;;;10.00;99.90;;;;;;5030200;28;20279;-75
2023/11/24 12:22:38;;;;;;;6.97;1.55;;;10.10;99.90;;;;;;5030147;28;20021;-75
2023/11/24 12:25:05;;;;;;;8.75;2.38;;;10.30;99.90;;;;;;5047589;28;20033;-75
2023/11/24 12:27:33;;;;;;;21.90;9.50;;;10.40;99.90;;;;;;5030104;28;20097;-76
2023/11/24 12:30:04;;;;;;;15.60;7.15;;;10.40;99.90;;;;;;5030528;28;20064;-76
2023/11/24 12:32:32;;;;;;;5.68;1.25;;;10.40;99.90;;;;;;5046703;28;20039;-75
2023/11/24 12:35:01;;;;;;;6.28;1.55;;;10.40;99.90;;;;;;5046242;28;20037;-76
2023/11/24 12:37:27;;;;;;;2.92;1.00;;;10.30;99.90;;;;;;5046064;28;20025;-76
2023/11/24 12:39:53;;;;;;;5.75;1.23;;;10.30;99.90;;;;;;5047246;28;20021;-76